New Washington, Indiana
Current Conditions -  °F | °C
As of 6:53 PM on Friday 28 Nov 2014 (Local Time) from KLOU Reporting Station
Clear Clear  
Wind Chill: 30°   Ceiling: Unl
Heat Index: 36°   Visibility: 10mi
Dew Point: 20°   Wind: 7mph
Humidity: 52%   Direction: 140°SE
Pressure: 30.15"   Gusts: NA
Location:  38.56°N, 85.54°W
Report Text: KLOU 282353Z 14006KT 10SM CLR 02/M07 A3015 RMK AO2 SLP216 T00221067 10039 20011 58022
Loading
Personal Weather Stations






























Interactive Weather Map New forecast layout! Learn more

10-Day Weather Forecast

Advertisements
Track Severe Weather on mobile